Airport Name : Cork

Other Name : Cork

ICAO : EICK

IATA : ORK

FAA :

Latitude : 51.841269

Longitude : -8.491111

Country : Ireland

Local Date and Time : 03 Mar 2021 14:16

 

TAF (Terminal Aerodrome Forecast)

TAF EICK 031100Z 0312/0412 05005KT 6000 SCT003 BKN016 PROB30 TEMPO 0312/0318 2500 BR BKN005 PROB40 TEMPO 0322/0409 2500 BR BKN007 PROB30 TEMPO 0400/0409 0600 FG BKN001

 

METAR (METeorological Aerodrome Report)

EICK 031400Z 05005KT 4000 BR BKN008 07/05 Q1026 TEMPO 2500

EICK 031330Z 08004KT 4000 BR BKN008 07/05 Q1027 TEMPO 2500

EICK 031300Z 10006KT 4000 BR BKN007 07/05 Q1027 TEMPO 2500

EICK 031230Z 09007KT 4000 BR BKN007 07/05 Q1027 TEMPO 2500

EICK 031200Z 08006KT 4000 BR BKN006 06/05 Q1027 TEMPO 2500

EICK 031130Z 06007KT 4000 BR BKN006 06/05 Q1027 NOSIG

EICK 031100Z 05007KT 3500 BR BKN005 06/05 Q1027 NOSIG

EICK 031030Z 04007KT 3000 BR BKN005 06/04 Q1026 NOSIG

To Charter a Jet Click here.